sensor_id;sensor_type;location;lat;lon;timestamp;temperature;humidity
37874;DHT22;23709;48.078;11.684;2024-02-04T06:04:23;6.00;99.90
37874;DHT22;23709;48.078;11.684;2024-02-04T06:06:56;6.00;99.90
37874;DHT22;23709;48.078;11.684;2024-02-04T06:09:28;6.10;99.90
37874;DHT22;23709;48.078;11.684;2024-02-04T06:12:00;6.10;99.90
37874;DHT22;23709;48.078;11.684;2024-02-04T06:14:33;6.20;99.90
37874;DHT22;23709;48.078;11.684;2024-02-04T06:17:06;6.30;99.90
37874;DHT22;23709;48.078;11.684;2024-02-04T06:19:40;6.30;99.90
37874;DHT22;23709;48.078;11.684;2024-02-04T06:22:14;6.30;99.90
37874;DHT22;23709;48.078;11.684;2024-02-04T06:24:46;6.40;99.90
37874;DHT22;23709;48.078;11.684;2024-02-04T06:27:18;6.50;99.90
37874;DHT22;23709;48.078;11.684;2024-02-04T06:29:51;6.50;99.90
37874;DHT22;23709;48.078;11.684;2024-02-04T06:32:23;6.60;99.90
37874;DHT22;23709;48.078;11.684;2024-02-04T06:34:57;6.60;99.90
37874;DHT22;23709;48.078;11.684;2024-02-04T06:37:31;6.60;99.90
37874;DHT22;23709;48.078;11.684;2024-02-04T06:40:03;6.70;99.90
37874;DHT22;23709;48.078;11.684;2024-02-04T06:42:36;6.70;99.90
37874;DHT22;23709;48.078;11.684;2024-02-04T06:45:09;6.70;99.90
37874;DHT22;23709;48.078;11.684;2024-02-04T06:47:44;6.70;99.90
37874;DHT22;23709;48.078;11.684;2024-02-04T06:50:17;6.80;99.90
37874;DHT22;23709;48.078;11.684;2024-02-04T06:52:49;6.80;99.90
37874;DHT22;23709;48.078;11.684;2024-02-04T06:55:21;6.80;99.90
37874;DHT22;23709;48.078;11.684;2024-02-04T06:57:54;6.80;99.90
37874;DHT22;23709;48.078;11.684;2024-02-04T07:00:26;6.80;99.90
37874;DHT22;23709;48.078;11.684;2024-02-04T07:02:59;6.80;99.90
37874;DHT22;23709;48.078;11.684;2024-02-04T07:05:32;6.80;99.90
37874;DHT22;23709;48.078;11.684;2024-02-04T07:08:06;6.80;99.90
37874;DHT22;23709;48.078;11.684;2024-02-04T07:10:39;6.90;99.90
37874;DHT22;23709;48.078;11.684;2024-02-04T07:13:11;6.90;99.90
37874;DHT22;23709;48.078;11.684;2024-02-04T07:15:44;6.90;99.90
37874;DHT22;23709;48.078;11.684;2024-02-04T07:18:17;6.90;99.90
37874;DHT22;23709;48.078;11.684;2024-02-04T07:20:54;6.90;99.90
37874;DHT22;23709;48.078;11.684;2024-02-04T07:23:26;7.00;99.90
37874;DHT22;23709;48.078;11.684;2024-02-04T07:25:58;7.00;99.90
37874;DHT22;23709;48.078;11.684;2024-02-04T07:28:31;7.00;99.90
37874;DHT22;23709;48.078;11.684;2024-02-04T07:31:03;7.10;99.90
37874;DHT22;23709;48.078;11.684;2024-02-04T07:33:36;7.10;99.90
37874;DHT22;23709;48.078;11.684;2024-02-04T07:36:10;7.10;99.90
37874;DHT22;23709;48.078;11.684;2024-02-04T07:38:43;7.10;99.90
37874;DHT22;23709;48.078;11.684;2024-02-04T07:41:15;7.10;99.90
37874;DHT22;23709;48.078;11.684;2024-02-04T07:43:48;7.10;99.90
37874;DHT22;23709;48.078;11.684;2024-02-04T07:46:21;7.10;99.90
37874;DHT22;23709;48.078;11.684;2024-02-04T14:42:17;11.10;99.90
37874;DHT22;23709;48.078;11.684;2024-02-04T14:44:50;11.10;99.90
37874;DHT22;23709;48.078;11.684;2024-02-04T14:47:22;11.10;99.90
37874;DHT22;23709;48.078;11.684;2024-02-04T14:49:55;11.20;99.90
37874;DHT22;23709;48.078;11.684;2024-02-04T14:52:27;11.20;99.90
37874;DHT22;23709;48.078;11.684;2024-02-04T14:55:00;11.30;99.90
37874;DHT22;23709;48.078;11.684;2024-02-04T14:57:32;11.40;99.90
37874;DHT22;23709;48.078;11.684;2024-02-04T15:00:05;11.40;99.90
37874;DHT22;23709;48.078;11.684;2024-02-04T15:02:38;11.50;99.90
37874;DHT22;23709;48.078;11.684;2024-02-04T15:05:10;11.50;99.90
37874;DHT22;23709;48.078;11.684;2024-02-04T15:07:44;11.50;99.90
37874;DHT22;23709;48.078;11.684;2024-02-04T15:10:19;11.50;99.90
37874;DHT22;23709;48.078;11.684;2024-02-04T15:12:52;11.50;99.90
37874;DHT22;23709;48.078;11.684;2024-02-04T15:15:26;11.50;99.90
37874;DHT22;23709;48.078;11.684;2024-02-04T15:18:00;11.50;99.90
37874;DHT22;23709;48.078;11.684;2024-02-04T15:20:32;11.50;99.90
37874;DHT22;23709;48.078;11.684;2024-02-04T15:23:05;11.50;99.90
37874;DHT22;23709;48.078;11.684;2024-02-04T15:25:38;11.60;99.90
37874;DHT22;23709;48.078;11.684;2024-02-04T15:28:11;11.50;99.90
37874;DHT22;23709;48.078;11.684;2024-02-04T15:30:47;11.50;99.90
37874;DHT22;23709;48.078;11.684;2024-02-04T15:33:20;11.50;99.90
37874;DHT22;23709;48.078;11.684;2024-02-04T15:35:52;11.40;99.90
37874;DHT22;23709;48.078;11.684;2024-02-04T15:38:25;11.40;99.90
37874;DHT22;23709;48.078;11.684;2024-02-04T15:40:59;11.40;99.90
37874;DHT22;23709;48.078;11.684;2024-02-04T15:43:31;11.40;99.90
37874;DHT22;23709;48.078;11.684;2024-02-04T15:46:08;11.40;99.90
37874;DHT22;23709;48.078;11.684;2024-02-04T15:48:44;11.40;99.90
37874;DHT22;23709;48.078;11.684;2024-02-04T15:51:18;11.40;99.90
37874;DHT22;23709;48.078;11.684;2024-02-04T15:53:51;11.40;99.90
37874;DHT22;23709;48.078;11.684;2024-02-04T15:56:24;11.40;99.90
37874;DHT22;23709;48.078;11.684;2024-02-04T15:59:08;11.40;99.90
37874;DHT22;23709;48.078;11.684;2024-02-04T16:01:42;11.40;99.90
37874;DHT22;23709;48.078;11.684;2024-02-04T16:04:15;11.40;99.90
37874;DHT22;23709;48.078;11.684;2024-02-04T16:06:50;11.40;99.90
37874;DHT22;23709;48.078;11.684;2024-02-04T16:09:22;11.40;99.90
37874;DHT22;23709;48.078;11.684;2024-02-04T16:14:37;11.30;99.90
37874;DHT22;23709;48.078;11.684;2024-02-04T16:17:14;11.40;99.90
37874;DHT22;23709;48.078;11.684;2024-02-04T16:19:50;11.30;99.90
37874;DHT22;23709;48.078;11.684;2024-02-04T16:22:26;11.40;99.90
37874;DHT22;23709;48.078;11.684;2024-02-04T16:24:59;11.30;99.90
37874;DHT22;23709;48.078;11.684;2024-02-04T16:27:31;11.30;99.90
37874;DHT22;23709;48.078;11.684;2024-02-04T16:30:04;11.40;99.90
37874;DHT22;23709;48.078;11.684;2024-02-04T16:32:37;11.40;99.90
37874;DHT22;23709;48.078;11.684;2024-02-04T16:35:09;11.30;99.90
37874;DHT22;23709;48.078;11.684;2024-02-04T16:37:42;11.30;99.90
37874;DHT22;23709;48.078;11.684;2024-02-04T16:40:14;11.30;99.90
37874;DHT22;23709;48.078;11.684;2024-02-04T16:42:48;11.30;99.90
37874;DHT22;23709;48.078;11.684;2024-02-04T16:45:20;11.30;99.90
37874;DHT22;23709;48.078;11.684;2024-02-04T16:47:54;11.30;99.90
37874;DHT22;23709;48.078;11.684;2024-02-04T16:50:27;11.30;99.90
37874;DHT22;23709;48.078;11.684;2024-02-04T16:53:05;11.30;99.90
37874;DHT22;23709;48.078;11.684;2024-02-04T16:55:38;11.30;99.90
37874;DHT22;23709;48.078;11.684;2024-02-04T16:58:11;11.30;99.90
37874;DHT22;23709;48.078;11.684;2024-02-04T17:00:44;11.30;99.90
37874;DHT22;23709;48.078;11.684;2024-02-04T17:03:18;11.20;99.90
37874;DHT22;23709;48.078;11.684;2024-02-04T17:05:51;11.20;99.90
37874;DHT22;23709;48.078;11.684;2024-02-04T17:08:28;11.20;99.90
37874;DHT22;23709;48.078;11.684;2024-02-04T17:11:02;11.20;99.90
37874;DHT22;23709;48.078;11.684;2024-02-04T17:13:35;11.20;99.90
37874;DHT22;23709;48.078;11.684;2024-02-04T17:16:22;11.20;99.90
37874;DHT22;23709;48.078;11.684;2024-02-04T17:21:55;11.10;99.90
37874;DHT22;23709;48.078;11.684;2024-02-04T17:24:28;11.10;99.90
37874;DHT22;23709;48.078;11.684;2024-02-04T17:27:04;11.10;99.90
37874;DHT22;23709;48.078;11.684;2024-02-04T17:29:38;11.00;99.90
37874;DHT22;23709;48.078;11.684;2024-02-04T17:32:14;11.00;99.90
37874;DHT22;23709;48.078;11.684;2024-02-04T17:34:47;11.00;99.90
37874;DHT22;23709;48.078;11.684;2024-02-04T17:37:26;11.00;99.90
37874;DHT22;23709;48.078;11.684;2024-02-04T17:40:00;11.00;99.90
37874;DHT22;23709;48.078;11.684;2024-02-04T17:42:33;11.00;99.90
37874;DHT22;23709;48.078;11.684;2024-02-04T17:45:08;11.00;99.90
37874;DHT22;23709;48.078;11.684;2024-02-04T17:47:41;10.90;99.90
37874;DHT22;23709;48.078;11.684;2024-02-04T17:50:15;10.90;99.90
37874;DHT22;23709;48.078;11.684;2024-02-04T17:52:48;10.90;99.90
37874;DHT22;23709;48.078;11.684;2024-02-04T17:55:20;10.80;99.90
37874;DHT22;23709;48.078;11.684;2024-02-04T17:57:55;10.80;99.90
37874;DHT22;23709;48.078;11.684;2024-02-04T18:00:31;10.70;99.90
37874;DHT22;23709;48.078;11.684;2024-02-04T18:03:06;10.70;99.90
37874;DHT22;23709;48.078;11.684;2024-02-04T18:05:39;10.70;99.90
37874;DHT22;23709;48.078;11.684;2024-02-04T18:08:15;10.70;99.90
37874;DHT22;23709;48.078;11.684;2024-02-04T18:10:48;10.70;99.90
37874;DHT22;23709;48.078;11.684;2024-02-04T18:13:22;10.60;99.90
37874;DHT22;23709;48.078;11.684;2024-02-04T18:15:55;10.60;99.90
37874;DHT22;23709;48.078;11.684;2024-02-04T18:18:28;10.60;99.90
37874;DHT22;23709;48.078;11.684;2024-02-04T18:21:00;10.60;99.90
37874;DHT22;23709;48.078;11.684;2024-02-04T18:23:34;10.50;99.90
37874;DHT22;23709;48.078;11.684;2024-02-04T18:26:18;10.50;99.90
37874;DHT22;23709;48.078;11.684;2024-02-04T18:28:51;10.40;99.90
37874;DHT22;23709;48.078;11.684;2024-02-04T18:31:31;10.40;99.90
37874;DHT22;23709;48.078;11.684;2024-02-04T18:34:03;10.40;99.90
37874;DHT22;23709;48.078;11.684;2024-02-04T18:36:36;10.30;99.90
37874;DHT22;23709;48.078;11.684;2024-02-04T18:39:08;10.20;99.90
37874;DHT22;23709;48.078;11.684;2024-02-04T18:41:42;10.20;99.90
37874;DHT22;23709;48.078;11.684;2024-02-04T18:44:17;10.20;99.90
37874;DHT22;23709;48.078;11.684;2024-02-04T18:46:50;10.20;99.90
37874;DHT22;23709;48.078;11.684;2024-02-04T18:49:24;10.20;99.90
37874;DHT22;23709;48.078;11.684;2024-02-04T18:51:57;10.20;99.90
37874;DHT22;23709;48.078;11.684;2024-02-04T18:54:32;10.20;99.90
37874;DHT22;23709;48.078;11.684;2024-02-04T18:57:05;10.10;99.90
37874;DHT22;23709;48.078;11.684;2024-02-04T18:59:38;10.10;99.90
37874;DHT22;23709;48.078;11.684;2024-02-04T19:02:11;10.20;99.90
37874;DHT22;23709;48.078;11.684;2024-02-04T19:04:43;10.20;99.90
37874;DHT22;23709;48.078;11.684;2024-02-04T19:07:17;10.20;99.90
37874;DHT22;23709;48.078;11.684;2024-02-04T19:09:51;10.30;99.90
37874;DHT22;23709;48.078;11.684;2024-02-04T19:12:24;10.30;99.90
37874;DHT22;23709;48.078;11.684;2024-02-04T19:14:56;10.20;99.90
37874;DHT22;23709;48.078;11.684;2024-02-04T19:17:32;10.20;99.90
37874;DHT22;23709;48.078;11.684;2024-02-04T19:20:11;10.20;99.90
37874;DHT22;23709;48.078;11.684;2024-02-04T19:22:44;10.20;99.90
37874;DHT22;23709;48.078;11.684;2024-02-04T19:25:19;10.10;99.90
37874;DHT22;23709;48.078;11.684;2024-02-04T19:27:53;10.10;99.90
37874;DHT22;23709;48.078;11.684;2024-02-04T19:30:26;10.10;99.90
37874;DHT22;23709;48.078;11.684;2024-02-04T19:33:00;10.10;99.90
37874;DHT22;23709;48.078;11.684;2024-02-04T19:35:32;10.20;99.90
37874;DHT22;23709;48.078;11.684;2024-02-04T19:38:05;10.10;99.90
37874;DHT22;23709;48.078;11.684;2024-02-04T19:40:37;10.00;99.90
37874;DHT22;23709;48.078;11.684;2024-02-04T19:43:11;10.10;99.90
37874;DHT22;23709;48.078;11.684;2024-02-04T19:45:44;10.10;99.90
37874;DHT22;23709;48.078;11.684;2024-02-04T19:48:16;10.10;99.90
37874;DHT22;23709;48.078;11.684;2024-02-04T19:50:50;10.00;99.90
37874;DHT22;23709;48.078;11.684;2024-02-04T19:53:23;10.10;99.90
37874;DHT22;23709;48.078;11.684;2024-02-04T19:55:56;10.00;99.90
37874;DHT22;23709;48.078;11.684;2024-02-04T19:58:30;10.00;99.90
37874;DHT22;23709;48.078;11.684;2024-02-04T20:01:02;10.00;99.90
37874;DHT22;23709;48.078;11.684;2024-02-04T20:03:36;10.00;99.90
37874;DHT22;23709;48.078;11.684;2024-02-04T20:06:09;10.00;99.90
37874;DHT22;23709;48.078;11.684;2024-02-04T20:08:42;10.00;99.90
37874;DHT22;23709;48.078;11.684;2024-02-04T20:11:14;10.00;99.90
37874;DHT22;23709;48.078;11.684;2024-02-04T20:13:47;10.00;99.90
37874;DHT22;23709;48.078;11.684;2024-02-04T20:16:19;10.20;99.90
37874;DHT22;23709;48.078;11.684;2024-02-04T20:18:52;10.10;99.90
37874;DHT22;23709;48.078;11.684;2024-02-04T20:21:27;10.20;99.90
37874;DHT22;23709;48.078;11.684;2024-02-04T20:24:00;10.10;99.90
37874;DHT22;23709;48.078;11.684;2024-02-04T20:26:33;10.10;99.90
37874;DHT22;23709;48.078;11.684;2024-02-04T20:29:06;10.10;99.90
37874;DHT22;23709;48.078;11.684;2024-02-04T20:31:38;10.20;99.90
37874;DHT22;23709;48.078;11.684;2024-02-04T20:34:13;10.10;99.90
37874;DHT22;23709;48.078;11.684;2024-02-04T20:36:46;10.10;99.90
37874;DHT22;23709;48.078;11.684;2024-02-04T20:39:21;10.10;99.90
37874;DHT22;23709;48.078;11.684;2024-02-04T20:41:54;10.00;99.90
37874;DHT22;23709;48.078;11.684;2024-02-04T20:44:30;10.00;99.90
37874;DHT22;23709;48.078;11.684;2024-02-04T20:47:03;10.00;99.90
37874;DHT22;23709;48.078;11.684;2024-02-04T20:49:35;10.00;99.90
37874;DHT22;23709;48.078;11.684;2024-02-04T20:52:07;10.00;99.90
37874;DHT22;23709;48.078;11.684;2024-02-04T20:54:39;10.00;99.90
37874;DHT22;23709;48.078;11.684;2024-02-04T20:57:12;10.00;99.90
37874;DHT22;23709;48.078;11.684;2024-02-04T20:59:45;10.00;99.90
37874;DHT22;23709;48.078;11.684;2024-02-04T21:02:17;10.10;99.90
37874;DHT22;23709;48.078;11.684;2024-02-04T21:04:49;10.20;99.90
37874;DHT22;23709;48.078;11.684;2024-02-04T21:07:22;10.10;99.90
37874;DHT22;23709;48.078;11.684;2024-02-04T21:09:54;10.10;99.90
37874;DHT22;23709;48.078;11.684;2024-02-04T21:12:27;10.00;99.90
37874;DHT22;23709;48.078;11.684;2024-02-04T21:14:59;10.10;99.90
37874;DHT22;23709;48.078;11.684;2024-02-04T21:17:36;10.00;99.90
37874;DHT22;23709;48.078;11.684;2024-02-04T21:20:09;10.10;99.90
37874;DHT22;23709;48.078;11.684;2024-02-04T21:22:43;10.10;99.90
37874;DHT22;23709;48.078;11.684;2024-02-04T21:25:17;10.10;99.90
37874;DHT22;23709;48.078;11.684;2024-02-04T21:27:50;10.10;99.90
37874;DHT22;23709;48.078;11.684;2024-02-04T21:30:22;10.00;99.90
37874;DHT22;23709;48.078;11.684;2024-02-04T21:32:55;10.00;99.90
37874;DHT22;23709;48.078;11.684;2024-02-04T21:35:27;10.00;99.90
37874;DHT22;23709;48.078;11.684;2024-02-04T21:37:59;9.90;99.90
37874;DHT22;23709;48.078;11.684;2024-02-04T21:40:32;10.00;99.90
37874;DHT22;23709;48.078;11.684;2024-02-04T21:43:04;10.00;99.90
